createdAt,value
2017-10-14T00:01:01.644Z,99857.28
2017-10-14T00:03:27.881Z,99859.73
2017-10-14T00:05:54.269Z,99855.53
2017-10-14T00:08:20.575Z,99858.12
2017-10-14T00:10:46.870Z,99857.84
2017-10-14T00:13:13.191Z,99855.77
2017-10-14T00:15:39.463Z,99852.70
2017-10-14T00:18:05.796Z,99853.80
2017-10-14T00:20:32.136Z,99853.69
2017-10-14T00:22:58.431Z,99855.73
2017-10-14T00:25:24.761Z,99866.88
2017-10-14T00:27:51.094Z,99864.48
2017-10-14T00:30:17.468Z,99866.45
2017-10-14T00:32:43.780Z,99874.80
2017-10-14T00:35:10.102Z,99877.09
2017-10-14T00:37:36.428Z,99883.06
2017-10-14T00:40:02.769Z,99883.53
2017-10-14T00:42:29.110Z,99881.34
2017-10-14T00:44:55.435Z,99892.55
2017-10-14T00:47:21.738Z,99896.09
2017-10-14T00:49:47.997Z,99891.73
2017-10-14T00:52:14.317Z,99899.78
2017-10-14T00:54:40.653Z,99898.02
2017-10-14T00:57:06.885Z,99893.73
2017-10-14T00:59:33.309Z,99906.44
2017-10-14T01:01:59.677Z,99902.01
2017-10-14T01:04:26.000Z,99904.55
2017-10-14T01:06:52.300Z,99900.04
2017-10-14T01:09:18.641Z,99892.48
2017-10-14T01:11:44.980Z,99899.25
2017-10-14T01:14:11.329Z,99894.49
2017-10-14T01:16:37.650Z,99897.00
2017-10-14T01:19:03.992Z,99901.44
2017-10-14T01:21:30.328Z,99897.33
2017-10-14T01:23:56.623Z,99897.47
2017-10-14T01:26:22.992Z,99900.59
2017-10-14T01:28:49.302Z,99893.17
2017-10-14T01:31:16.141Z,99892.38
2017-10-14T01:33:42.475Z,99890.62
2017-10-14T01:36:08.832Z,99896.61
2017-10-14T01:38:35.136Z,99893.84
2017-10-14T01:41:01.495Z,99897.33
2017-10-14T01:43:27.825Z,99896.97
2017-10-14T01:45:54.058Z,99897.06
2017-10-14T01:48:20.372Z,99905.84
2017-10-14T01:50:46.699Z,99904.39
2017-10-14T01:53:13.018Z,99901.98
2017-10-14T01:55:39.252Z,99905.09
2017-10-14T01:58:05.582Z,99905.55
2017-10-14T02:00:31.910Z,99909.77
2017-10-14T02:02:58.159Z,99903.61
2017-10-14T02:05:24.486Z,99902.29
2017-10-14T02:07:50.714Z,99905.92
2017-10-14T02:10:17.040Z,99915.02
2017-10-14T02:12:43.310Z,99915.69
2017-10-14T02:15:09.609Z,99908.41
2017-10-14T02:17:35.921Z,99911.56
2017-10-14T02:20:02.194Z,99914.81
2017-10-14T02:22:28.518Z,99913.86
2017-10-14T02:24:54.820Z,99906.02
2017-10-14T02:27:21.057Z,99901.42
2017-10-14T02:29:47.376Z,99906.62
2017-10-14T02:32:13.660Z,99905.14
2017-10-14T02:34:39.971Z,99917.33
2017-10-14T02:37:09.583Z,99912.69
2017-10-14T02:39:35.907Z,99918.12
2017-10-14T02:42:02.228Z,99916.16
2017-10-14T02:44:28.558Z,99919.14
2017-10-14T02:46:54.882Z,99914.97
2017-10-14T02:49:21.226Z,99914.11
2017-10-14T02:51:47.564Z,99913.91
2017-10-14T02:54:13.886Z,99915.36
2017-10-14T02:56:40.212Z,99912.44
2017-10-14T02:59:06.431Z,99918.02
2017-10-14T03:01:32.684Z,99926.81
2017-10-14T03:03:59.038Z,99922.02
2017-10-14T03:06:25.362Z,99924.00
2017-10-14T03:08:51.677Z,99922.22
2017-10-14T03:11:18.032Z,99916.27
2017-10-14T03:13:44.347Z,99923.03
2017-10-14T03:16:10.673Z,99917.94
2017-10-14T03:18:37.021Z,99907.66
2017-10-14T03:21:03.358Z,99924.48
2017-10-14T03:23:29.686Z,99923.11
2017-10-14T03:25:56.007Z,99925.41
2017-10-14T03:28:22.343Z,99922.59
2017-10-14T03:30:48.661Z,99921.39
2017-10-14T03:33:15.020Z,99919.67
2017-10-14T03:35:41.345Z,99917.34
2017-10-14T03:38:07.686Z,99917.53
2017-10-14T03:40:33.991Z,99919.49
2017-10-14T03:43:00.327Z,99910.80
2017-10-14T03:45:26.551Z,99910.33
2017-10-14T03:47:52.888Z,99917.25
2017-10-14T03:50:19.237Z,99916.48
2017-10-14T03:52:45.555Z,99921.75
2017-10-14T03:55:11.890Z,99926.28
2017-10-14T03:57:38.238Z,99927.77
2017-10-14T04:00:04.567Z,99921.46
2017-10-14T04:02:30.884Z,99921.03
2017-10-14T04:04:57.216Z,99927.33
2017-10-14T04:07:23.532Z,99924.46
2017-10-14T04:09:49.791Z,99925.89
2017-10-14T04:12:16.121Z,99923.86
2017-10-14T04:14:42.475Z,99924.89
2017-10-14T04:17:08.832Z,99922.86
2017-10-14T04:19:35.103Z,99918.42
2017-10-14T04:22:01.421Z,99921.66
2017-10-14T04:24:27.666Z,99922.41
2017-10-14T04:26:54.012Z,99927.77
2017-10-14T04:29:20.347Z,99932.34
2017-10-14T04:31:46.674Z,99927.50
2017-10-14T04:34:13.008Z,99924.13
2017-10-14T04:36:39.344Z,99929.48
2017-10-14T04:39:05.686Z,99929.70
2017-10-14T04:41:32.022Z,99929.05
2017-10-14T04:43:58.469Z,99934.11
2017-10-14T04:46:24.791Z,99931.58
2017-10-14T04:48:51.105Z,99935.52
2017-10-14T04:51:17.456Z,99937.80
2017-10-14T04:53:43.768Z,99937.28
2017-10-14T04:56:10.065Z,99946.09
2017-10-14T04:58:36.335Z,99946.00
2017-10-14T05:01:02.685Z,99948.69
2017-10-14T05:03:29.003Z,99953.71
2017-10-14T05:05:55.332Z,99952.25
2017-10-14T05:08:21.725Z,99957.30
2017-10-14T05:10:47.960Z,99960.66
2017-10-14T05:13:14.230Z,99966.38
2017-10-14T05:15:40.535Z,99959.80
2017-10-14T05:18:06.885Z,99963.19
2017-10-14T05:20:33.216Z,99959.41
2017-10-14T05:22:59.557Z,99964.11
2017-10-14T05:25:25.901Z,99969.92
2017-10-14T05:27:53.199Z,99961.57
2017-10-14T05:30:20.435Z,99965.54
2017-10-14T05:32:46.776Z,99972.33
2017-10-14T05:35:13.062Z,99971.55
2017-10-14T05:37:39.365Z,99972.65
2017-10-14T05:40:07.436Z,99980.97
2017-10-14T05:42:33.762Z,99978.13
2017-10-14T05:45:00.062Z,99977.45
2017-10-14T05:47:26.359Z,99982.14
2017-10-14T05:49:52.579Z,99982.80
2017-10-14T05:52:18.907Z,99989.16
2017-10-14T05:54:45.214Z,99990.83
2017-10-14T05:57:11.636Z,99991.55
2017-10-14T05:59:37.903Z,99990.41
2017-10-14T06:02:16.822Z,99988.84
2017-10-14T06:04:43.189Z,99998.81
2017-10-14T06:09:47.760Z,99991.59
2017-10-14T06:12:14.187Z,99984.82
2017-10-14T06:14:48.274Z,99979.58
2017-10-14T06:17:14.638Z,99984.86
2017-10-14T06:19:49.760Z,99983.00
2017-10-14T06:22:17.635Z,99986.59
2017-10-14T06:24:43.943Z,99989.34
2017-10-14T06:27:10.242Z,99988.88
2017-10-14T06:29:37.121Z,100003.75
2017-10-14T06:32:03.422Z,99998.55
2017-10-14T06:34:29.994Z,100001.75
2017-10-14T06:36:56.329Z,99999.55
2017-10-14T06:39:22.592Z,99993.39
2017-10-14T06:41:48.788Z,99994.69
2017-10-14T06:44:15.009Z,99990.81
2017-10-14T06:46:41.242Z,99998.48
2017-10-14T06:49:07.442Z,99992.88
2017-10-14T06:51:33.727Z,99989.36
2017-10-14T06:53:59.973Z,99992.21
2017-10-14T06:56:26.191Z,99988.27
2017-10-14T06:58:52.450Z,99985.23
2017-10-14T07:01:18.659Z,99995.58
2017-10-14T07:03:44.923Z,99992.11
2017-10-14T07:06:11.142Z,99994.91
2017-10-14T07:08:37.399Z,99993.58
2017-10-14T07:11:03.601Z,100002.44
2017-10-14T07:13:29.812Z,99994.34
2017-10-14T07:15:56.107Z,99998.14
2017-10-14T07:18:22.295Z,99990.41
2017-10-14T07:20:48.530Z,99993.29
2017-10-14T07:23:14.746Z,99994.98
2017-10-14T07:25:40.940Z,100000.45
2017-10-14T07:28:07.201Z,99994.26
2017-10-14T07:30:33.413Z,99991.70
2017-10-14T07:32:59.622Z,99985.21
2017-10-14T07:35:25.859Z,99982.09
2017-10-14T07:37:52.053Z,99991.38
2017-10-14T07:40:18.264Z,99991.06
2017-10-14T07:42:45.545Z,99991.50
2017-10-14T07:45:11.792Z,99989.81
2017-10-14T07:47:38.002Z,99985.50
2017-10-14T07:50:04.214Z,99988.59
2017-10-14T07:52:30.428Z,99992.27
2017-10-14T07:54:56.703Z,99989.42
2017-10-14T07:57:22.903Z,99987.73
2017-10-14T07:59:49.117Z,99987.58
2017-10-14T08:02:15.346Z,99990.31
2017-10-14T08:04:41.559Z,99992.36
2017-10-14T08:07:07.806Z,99995.64
2017-10-14T08:09:34.559Z,100000.95
2017-10-14T08:12:00.771Z,99995.64
2017-10-14T08:14:27.061Z,99998.65
2017-10-14T08:16:53.283Z,99996.53
2017-10-14T08:19:19.525Z,99998.59
2017-10-14T08:21:45.755Z,100002.84
2017-10-14T08:24:11.984Z,99998.80
2017-10-14T08:26:38.235Z,100000.70
2017-10-14T08:29:04.469Z,100006.97
2017-10-14T08:31:30.714Z,100003.67
2017-10-14T08:33:56.937Z,100002.11
2017-10-14T08:36:23.164Z,100001.97
2017-10-14T08:38:49.431Z,100007.01
2017-10-14T08:41:15.645Z,100002.80
2017-10-14T08:43:41.915Z,99999.19
2017-10-14T08:46:08.129Z,100003.98
2017-10-14T08:48:34.425Z,99993.41
2017-10-14T08:51:00.638Z,99992.29
2017-10-14T08:53:26.850Z,99996.88
2017-10-14T08:55:53.102Z,99995.77
2017-10-14T08:58:19.332Z,100005.29
2017-10-14T09:00:45.537Z,100006.70
2017-10-14T09:03:11.766Z,100002.51
2017-10-14T09:05:37.994Z,99994.97
2017-10-14T09:08:04.238Z,99996.86
2017-10-14T09:10:30.464Z,99996.72
2017-10-14T09:12:56.668Z,99996.03
2017-10-14T09:15:22.920Z,99995.86
2017-10-14T09:17:49.114Z,99995.96
2017-10-14T09:20:15.346Z,100002.33
2017-10-14T09:22:41.584Z,99995.02
2017-10-14T09:25:07.807Z,100007.52
2017-10-14T09:27:34.024Z,99995.70
2017-10-14T09:30:01.228Z,99993.73
2017-10-14T09:32:27.473Z,100000.37
2017-10-14T09:34:53.725Z,99989.47
2017-10-14T09:37:19.929Z,99995.84
2017-10-14T09:39:46.201Z,99999.19
2017-10-14T09:42:12.405Z,99988.18
2017-10-14T09:44:38.653Z,99989.31
2017-10-14T09:47:04.863Z,99990.14
2017-10-14T09:49:31.108Z,99985.44
2017-10-14T09:51:57.350Z,99984.47
2017-10-14T09:54:23.595Z,99975.64
2017-10-14T09:56:49.846Z,99978.14
2017-10-14T09:59:16.064Z,99985.68
2017-10-14T10:01:42.269Z,99981.59
2017-10-14T10:04:08.485Z,99976.99
2017-10-14T10:06:34.690Z,99977.50
2017-10-14T10:09:00.941Z,99980.38
2017-10-14T10:11:27.157Z,99986.94
2017-10-14T10:13:53.418Z,99979.14
2017-10-14T10:16:19.616Z,99989.47
2017-10-14T10:18:45.853Z,99981.91
2017-10-14T10:21:12.076Z,99983.75
2017-10-14T10:23:38.286Z,99996.89
2017-10-14T10:26:04.483Z,99982.92
2017-10-14T10:28:30.744Z,99982.20
2017-10-14T10:30:56.970Z,99983.30
2017-10-14T10:33:23.200Z,99974.77
2017-10-14T10:35:49.449Z,99973.17
2017-10-14T10:38:15.675Z,99977.59
2017-10-14T10:40:41.923Z,99968.55
2017-10-14T10:43:08.139Z,99971.70
2017-10-14T10:45:34.403Z,99968.83
2017-10-14T10:48:00.651Z,99962.11
2017-10-14T10:50:26.869Z,99969.75
2017-10-14T10:52:53.092Z,99964.70
2017-10-14T10:55:19.324Z,99967.56
2017-10-14T10:57:45.593Z,99955.01
2017-10-14T11:00:11.799Z,99954.77
2017-10-14T11:02:38.050Z,99959.88
2017-10-14T11:05:04.269Z,99958.50
2017-10-14T11:07:30.578Z,99958.52
2017-10-14T11:09:56.831Z,99950.13
2017-10-14T11:12:23.106Z,99952.98
2017-10-14T11:14:49.303Z,99950.25
2017-10-14T11:17:15.517Z,99934.95
2017-10-14T11:19:41.721Z,99948.77
2017-10-14T11:22:08.034Z,99946.91
2017-10-14T11:24:34.290Z,99950.53
2017-10-14T11:27:00.505Z,99948.04
2017-10-14T11:29:26.741Z,99949.76
2017-10-14T11:31:53.041Z,99953.79
2017-10-14T11:34:19.333Z,99955.09
2017-10-14T11:36:45.543Z,99953.28
2017-10-14T11:39:11.929Z,99952.23
2017-10-14T11:41:38.126Z,99948.29
2017-10-14T11:44:06.372Z,99946.39
2017-10-14T11:46:32.691Z,99951.57
2017-10-14T11:48:58.969Z,99947.13
2017-10-14T11:51:25.321Z,99943.45
2017-10-14T11:53:51.674Z,99945.64
2017-10-14T11:56:18.066Z,99947.30
2017-10-14T11:58:44.629Z,99947.05
2017-10-14T12:01:11.132Z,99943.23
2017-10-14T12:03:37.648Z,99944.36
2017-10-14T12:06:04.109Z,99943.33
2017-10-14T12:08:31.120Z,99956.72
2017-10-14T12:10:57.903Z,99955.55
2017-10-14T12:13:24.482Z,99949.09
2017-10-14T12:15:51.124Z,99954.00
2017-10-14T12:18:17.628Z,99950.25
2017-10-14T12:20:44.426Z,99952.66
2017-10-14T12:23:10.939Z,99952.36
2017-10-14T12:25:37.998Z,99949.55
2017-10-14T12:28:04.564Z,99956.44
2017-10-14T12:30:31.033Z,99955.69
2017-10-14T12:32:57.612Z,99948.30
2017-10-14T12:35:24.125Z,99955.17
2017-10-14T12:37:50.733Z,99955.77
2017-10-14T12:40:17.335Z,99963.52
2017-10-14T12:42:43.970Z,99959.44
2017-10-14T12:45:10.546Z,99962.13
2017-10-14T12:47:37.190Z,99963.03
2017-10-14T12:50:03.776Z,99965.66
2017-10-14T12:52:30.375Z,99964.80
2017-10-14T12:54:57.050Z,99961.61
2017-10-14T12:57:23.632Z,99973.98
2017-10-14T12:59:50.123Z,99968.16
2017-10-14T13:02:16.645Z,99970.78
2017-10-14T13:04:43.217Z,99976.06
2017-10-14T13:07:09.727Z,99979.45
2017-10-14T13:09:36.406Z,99985.46
2017-10-14T13:12:03.035Z,99982.91
2017-10-14T13:14:29.752Z,99966.80
2017-10-14T13:16:56.374Z,99985.70
2017-10-14T13:19:23.048Z,99979.85
2017-10-14T13:21:49.580Z,99982.34
2017-10-14T13:24:16.291Z,99980.80
2017-10-14T13:26:42.808Z,99991.73
2017-10-14T13:29:09.174Z,99989.20
2017-10-14T13:31:43.828Z,99987.86
2017-10-14T13:36:48.785Z,99988.16
2017-10-14T13:39:15.406Z,99992.63
2017-10-14T13:41:41.987Z,99988.72
2017-10-14T13:44:08.707Z,99992.48
2017-10-14T13:46:35.184Z,99989.83
2017-10-14T13:49:03.168Z,99975.59
2017-10-14T13:51:29.650Z,99991.38
2017-10-14T13:53:56.195Z,99989.26
2017-10-14T13:56:24.435Z,99988.73
2017-10-14T13:58:51.036Z,99989.42
2017-10-14T14:04:57.340Z,99975.28
2017-10-14T14:07:28.803Z,99981.70
2017-10-14T14:09:55.264Z,99976.48
2017-10-14T14:12:23.442Z,99983.31
2017-10-14T14:14:50.389Z,99982.45
2017-10-14T14:17:17.350Z,99987.57
2017-10-14T14:19:44.017Z,99985.61
2017-10-14T14:22:10.558Z,99978.14
2017-10-14T14:24:37.111Z,99987.44
2017-10-14T14:27:03.658Z,99991.24
2017-10-14T14:29:30.211Z,99996.59
2017-10-14T14:31:57.043Z,99995.17
2017-10-14T14:34:23.787Z,99999.69
2017-10-14T14:36:50.502Z,100008.56
2017-10-14T14:39:16.900Z,100008.62
2017-10-14T14:41:44.079Z,100004.94
2017-10-14T14:44:10.726Z,100003.45
2017-10-14T14:46:42.115Z,100010.18
2017-10-14T14:51:39.916Z,100011.84
2017-10-14T14:54:06.556Z,100017.02
2017-10-14T14:56:33.195Z,100018.16
2017-10-14T14:58:59.645Z,100012.97
2017-10-14T15:01:26.201Z,100021.36
2017-10-14T15:03:52.756Z,100017.02
2017-10-14T15:06:19.409Z,100024.45
2017-10-14T15:08:45.923Z,100019.75
2017-10-14T15:11:12.636Z,100028.02
2017-10-14T15:13:39.194Z,100031.38
2017-10-14T15:16:05.976Z,100033.41
2017-10-14T15:18:32.696Z,100027.89
2017-10-14T15:20:59.229Z,100040.50
2017-10-14T15:23:26.007Z,100036.29
2017-10-14T15:25:52.932Z,100035.25
2017-10-14T15:28:19.381Z,100043.48
2017-10-14T15:30:45.910Z,100041.52
2017-10-14T15:33:12.414Z,100038.23
2017-10-14T15:35:39.032Z,100047.31
2017-10-14T15:38:05.643Z,100046.41
2017-10-14T15:40:32.282Z,100049.54
2017-10-14T15:42:59.967Z,100058.66
2017-10-14T15:45:26.472Z,100066.05
2017-10-14T15:47:53.269Z,100066.27
2017-10-14T15:50:19.951Z,100077.53
2017-10-14T15:52:46.508Z,100081.86
2017-10-14T15:55:12.836Z,100081.97
2017-10-14T15:57:39.225Z,100082.38
2017-10-14T16:00:05.521Z,100080.87
2017-10-14T16:02:32.062Z,100087.36
2017-10-14T16:04:58.527Z,100092.00
2017-10-14T16:07:24.804Z,100095.89
2017-10-14T16:09:51.105Z,100093.47
2017-10-14T16:12:17.494Z,100102.59
2017-10-14T16:14:43.874Z,100100.38
2017-10-14T16:17:10.253Z,100103.97
2017-10-14T16:19:36.618Z,100099.16
2017-10-14T16:22:03.084Z,100111.20
2017-10-14T16:24:29.320Z,100109.77
2017-10-14T16:26:55.591Z,100117.17
2017-10-14T16:29:21.904Z,100111.10
2017-10-14T16:31:48.150Z,100115.11
2017-10-14T16:34:14.411Z,100126.52
2017-10-14T16:36:40.691Z,100127.02
2017-10-14T16:39:07.080Z,100124.07
2017-10-14T16:41:33.378Z,100124.54
2017-10-14T16:43:59.776Z,100132.66
2017-10-14T16:46:26.292Z,100139.11
2017-10-14T16:48:52.910Z,100138.67
2017-10-14T16:51:19.485Z,100142.15
2017-10-14T16:53:45.922Z,100138.79
2017-10-14T16:56:12.354Z,100140.23
2017-10-14T16:58:38.958Z,100139.99
2017-10-14T17:01:05.329Z,100144.56
2017-10-14T17:03:32.039Z,100148.70
2017-10-14T17:05:58.620Z,100146.28
2017-10-14T17:08:25.204Z,100150.13
2017-10-14T17:10:51.914Z,100147.79
2017-10-14T17:13:18.630Z,100149.81
2017-10-14T17:15:45.355Z,100156.89
2017-10-14T17:18:12.062Z,100152.80
2017-10-14T17:20:38.881Z,100151.68
2017-10-14T17:23:05.575Z,100157.37
2017-10-14T17:25:32.167Z,100166.54
2017-10-14T17:27:58.882Z,100173.70
2017-10-14T17:30:25.580Z,100167.88
2017-10-14T17:32:52.201Z,100170.81
2017-10-14T17:35:18.705Z,100178.84
2017-10-14T17:37:45.490Z,100184.13
2017-10-14T17:40:12.175Z,100179.73
2017-10-14T17:42:38.839Z,100178.12
2017-10-14T17:45:05.477Z,100182.83
2017-10-14T17:47:32.157Z,100187.56
2017-10-14T17:49:59.002Z,100186.49
2017-10-14T17:52:25.653Z,100180.45
2017-10-14T17:54:52.456Z,100180.27
2017-10-14T17:57:19.196Z,100184.62
2017-10-14T17:59:45.785Z,100191.14
2017-10-14T18:02:12.473Z,100191.06
2017-10-14T18:04:39.099Z,100193.23
2017-10-14T18:07:06.092Z,100193.66
2017-10-14T18:09:32.734Z,100196.22
2017-10-14T18:11:59.445Z,100204.27
2017-10-14T18:14:26.165Z,100205.45
2017-10-14T18:16:52.918Z,100200.95
2017-10-14T18:19:19.935Z,100204.78
2017-10-14T18:21:46.807Z,100211.62
2017-10-14T18:24:14.548Z,100209.52
2017-10-14T18:26:41.160Z,100217.51
2017-10-14T18:29:07.824Z,100216.78
2017-10-14T18:31:34.699Z,100210.94
2017-10-14T18:34:01.504Z,100219.84
2017-10-14T18:36:28.232Z,100224.68
2017-10-14T18:38:55.091Z,100223.94
2017-10-14T18:41:21.964Z,100233.83
2017-10-14T18:43:48.572Z,100235.34
2017-10-14T18:46:15.726Z,100244.04
2017-10-14T18:48:43.095Z,100244.63
2017-10-14T18:51:09.758Z,100240.91
2017-10-14T18:53:36.352Z,100248.38
2017-10-14T18:56:03.132Z,100248.94
2017-10-14T18:58:29.949Z,100255.34
2017-10-14T19:00:56.610Z,100254.66
2017-10-14T19:03:23.347Z,100256.34
2017-10-14T19:05:50.027Z,100258.97
2017-10-14T19:08:16.779Z,100259.91
2017-10-14T19:10:43.611Z,100256.86
2017-10-14T19:13:10.390Z,100254.95
2017-10-14T19:15:36.964Z,100252.45
2017-10-14T19:18:03.661Z,100262.97
2017-10-14T19:20:30.403Z,100270.34
2017-10-14T19:22:57.113Z,100274.94
2017-10-14T19:25:23.850Z,100271.00
2017-10-14T19:27:50.670Z,100270.73
2017-10-14T19:30:17.551Z,100269.82
2017-10-14T19:32:44.237Z,100270.18
2017-10-14T19:35:11.088Z,100263.94
2017-10-14T19:37:37.960Z,100263.70
2017-10-14T19:40:04.777Z,100262.83
2017-10-14T19:42:31.541Z,100263.96
2017-10-14T19:44:58.389Z,100266.09
2017-10-14T19:47:24.959Z,100275.17
2017-10-14T19:49:51.624Z,100271.11
2017-10-14T19:52:18.100Z,100278.61
2017-10-14T19:54:44.551Z,100275.13
2017-10-14T19:57:11.128Z,100266.53
2017-10-14T19:59:37.550Z,100271.34
2017-10-14T20:02:04.157Z,100266.44
2017-10-14T20:04:30.696Z,100269.16
2017-10-14T20:06:57.293Z,100266.45
2017-10-14T20:09:23.800Z,100268.11
2017-10-14T20:11:50.347Z,100268.38
2017-10-14T20:14:16.984Z,100269.66
2017-10-14T20:16:43.742Z,100271.64
2017-10-14T20:19:10.308Z,100269.13
2017-10-14T20:21:36.962Z,100275.08
2017-10-14T20:24:03.617Z,100271.13
2017-10-14T20:26:30.437Z,100266.14
2017-10-14T20:28:57.070Z,100267.61
2017-10-14T20:31:23.685Z,100265.45
2017-10-14T20:33:50.225Z,100263.09
2017-10-14T20:36:16.836Z,100274.34
2017-10-14T20:38:43.421Z,100267.02
2017-10-14T20:41:09.894Z,100271.92
2017-10-14T20:43:36.347Z,100279.53
2017-10-14T20:46:03.057Z,100269.47
2017-10-14T20:48:29.495Z,100267.21
2017-10-14T20:50:55.926Z,100270.17
2017-10-14T20:53:22.125Z,100272.89
2017-10-14T20:55:48.436Z,100273.97
2017-10-14T20:58:14.653Z,100281.96
2017-10-14T21:00:40.962Z,100276.42
2017-10-14T21:03:07.373Z,100276.62
2017-10-14T21:05:33.687Z,100274.41
2017-10-14T21:07:59.999Z,100268.05
2017-10-14T21:10:26.313Z,100276.17
2017-10-14T21:12:52.533Z,100277.00
2017-10-14T21:15:18.857Z,100273.56
2017-10-14T21:17:45.080Z,100279.53
2017-10-14T21:20:11.333Z,100276.83
2017-10-14T21:22:37.552Z,100277.92
2017-10-14T21:25:03.779Z,100273.41
2017-10-14T21:27:30.124Z,100283.00
2017-10-14T21:29:56.344Z,100290.31
2017-10-14T21:32:22.609Z,100288.84
2017-10-14T21:34:48.923Z,100286.72
2017-10-14T21:37:15.163Z,100284.26
2017-10-14T21:39:41.507Z,100284.02
2017-10-14T21:42:07.839Z,100280.98
2017-10-14T21:44:34.048Z,100277.22
2017-10-14T21:47:00.273Z,100283.19
2017-10-14T21:49:26.485Z,100287.48
2017-10-14T21:51:52.709Z,100289.25
2017-10-14T21:54:18.994Z,100293.08
2017-10-14T21:56:45.290Z,100291.77
2017-10-14T21:59:11.519Z,100296.61
2017-10-14T22:01:37.760Z,100300.56
2017-10-14T22:04:04.082Z,100297.05
2017-10-14T22:06:30.298Z,100302.23
2017-10-14T22:08:56.523Z,100300.55
2017-10-14T22:11:22.759Z,100298.90
2017-10-14T22:13:49.007Z,100292.55
2017-10-14T22:16:15.324Z,100292.70
2017-10-14T22:18:41.568Z,100294.44
2017-10-14T22:21:07.784Z,100292.09
2017-10-14T22:23:34.013Z,100289.05
2017-10-14T22:26:00.246Z,100296.86
2017-10-14T22:28:26.579Z,100292.84
2017-10-14T22:30:52.820Z,100298.66
2017-10-14T22:33:19.050Z,100298.23
2017-10-14T22:35:45.282Z,100300.25
2017-10-14T22:38:11.509Z,100300.63
2017-10-14T22:40:37.826Z,100299.90
2017-10-14T22:43:04.063Z,100300.83
2017-10-14T22:45:30.292Z,100301.82
2017-10-14T22:47:56.519Z,100298.52
2017-10-14T22:50:22.750Z,100300.27
2017-10-14T22:52:49.087Z,100297.11
2017-10-14T22:55:15.321Z,100285.67
2017-10-14T22:57:41.541Z,100295.89
2017-10-14T23:00:07.780Z,100300.66
2017-10-14T23:02:34.034Z,100302.34
2017-10-14T23:05:00.333Z,100306.44
2017-10-14T23:07:26.572Z,100306.50
2017-10-14T23:09:52.800Z,100305.47
2017-10-14T23:12:19.020Z,100310.72
2017-10-14T23:14:45.262Z,100313.49
2017-10-14T23:17:11.583Z,100310.80
2017-10-14T23:19:37.815Z,100317.58
2017-10-14T23:22:04.043Z,100314.05
2017-10-14T23:24:30.269Z,100316.80
2017-10-14T23:26:56.507Z,100317.35
2017-10-14T23:29:22.827Z,100320.70
2017-10-14T23:31:49.068Z,100319.41
2017-10-14T23:34:15.283Z,100319.75
2017-10-14T23:36:41.520Z,100314.78
2017-10-14T23:39:07.760Z,100314.52
2017-10-14T23:41:34.108Z,100309.30
2017-10-14T23:44:00.427Z,100303.56
2017-10-14T23:46:26.650Z,100304.80
2017-10-14T23:48:52.887Z,100303.05
2017-10-14T23:51:19.120Z,100303.78
2017-10-14T23:53:45.469Z,100297.60
2017-10-14T23:56:11.782Z,100299.30
2017-10-14T23:58:38.001Z,100296.16
